sensor_id;sensor_type;location;lat;lon;timestamp;P1;durP1;ratioP1;P2;durP2;ratioP2
52734;SDS011;38631;47.572;10.704;2023-06-22T00:04:00;11.95;;;5.60;;
52734;SDS011;38631;47.572;10.704;2023-06-22T00:06:26;9.98;;;5.18;;
52734;SDS011;38631;47.572;10.704;2023-06-22T00:08:55;10.05;;;5.25;;
52734;SDS011;38631;47.572;10.704;2023-06-22T00:11:23;9.45;;;5.30;;
52734;SDS011;38631;47.572;10.704;2023-06-22T00:13:49;12.32;;;5.45;;
52734;SDS011;38631;47.572;10.704;2023-06-22T00:16:16;8.07;;;5.05;;
52734;SDS011;38631;47.572;10.704;2023-06-22T00:18:41;11.48;;;5.35;;
52734;SDS011;38631;47.572;10.704;2023-06-22T00:21:11;11.48;;;5.63;;
52734;SDS011;38631;47.572;10.704;2023-06-22T00:23:41;9.27;;;5.45;;
52734;SDS011;38631;47.572;10.704;2023-06-22T00:26:06;8.48;;;4.90;;
52734;SDS011;38631;47.572;10.704;2023-06-22T00:28:34;12.75;;;5.65;;
52734;SDS011;38631;47.572;10.704;2023-06-22T00:33:37;9.25;;;5.60;;
52734;SDS011;38631;47.572;10.704;2023-06-22T00:36:03;8.70;;;5.60;;
52734;SDS011;38631;47.572;10.704;2023-06-22T00:41:05;8.68;;;4.97;;
52734;SDS011;38631;47.572;10.704;2023-06-22T00:43:33;11.75;;;6.68;;
52734;SDS011;38631;47.572;10.704;2023-06-22T00:46:05;9.98;;;5.47;;
52734;SDS011;38631;47.572;10.704;2023-06-22T00:48:36;9.50;;;6.15;;
52734;SDS011;38631;47.572;10.704;2023-06-22T00:51:08;8.95;;;5.25;;
52734;SDS011;38631;47.572;10.704;2023-06-22T00:53:41;9.75;;;5.63;;
52734;SDS011;38631;47.572;10.704;2023-06-22T00:56:08;11.68;;;5.72;;
52734;SDS011;38631;47.572;10.704;2023-06-22T00:58:43;12.38;;;5.63;;
52734;SDS011;38631;47.572;10.704;2023-06-22T01:01:08;8.13;;;5.68;;
52734;SDS011;38631;47.572;10.704;2023-06-22T01:03:34;10.68;;;5.43;;
52734;SDS011;38631;47.572;10.704;2023-06-22T01:06:08;10.98;;;5.18;;
52734;SDS011;38631;47.572;10.704;2023-06-22T01:08:51;9.65;;;5.50;;
52734;SDS011;38631;47.572;10.704;2023-06-22T01:11:36;10.93;;;5.78;;
52734;SDS011;38631;47.572;10.704;2023-06-22T01:17:11;10.00;;;4.85;;
52734;SDS011;38631;47.572;10.704;2023-06-22T01:19:45;9.20;;;5.80;;
52734;SDS011;38631;47.572;10.704;2023-06-22T01:22:21;8.68;;;5.60;;
52734;SDS011;38631;47.572;10.704;2023-06-22T01:30:17;8.75;;;5.10;;
52734;SDS011;38631;47.572;10.704;2023-06-22T01:32:51;9.10;;;5.28;;
52734;SDS011;38631;47.572;10.704;2023-06-22T01:35:24;8.73;;;5.80;;
52734;SDS011;38631;47.572;10.704;2023-06-22T01:38:02;9.40;;;5.05;;
52734;SDS011;38631;47.572;10.704;2023-06-22T01:40:31;8.25;;;5.72;;
52734;SDS011;38631;47.572;10.704;2023-06-22T01:43:02;7.28;;;5.00;;
52734;SDS011;38631;47.572;10.704;2023-06-22T01:45:40;6.55;;;4.60;;
52734;SDS011;38631;47.572;10.704;2023-06-22T01:48:10;9.60;;;5.43;;
52734;SDS011;38631;47.572;10.704;2023-06-22T01:50:36;7.88;;;5.47;;
52734;SDS011;38631;47.572;10.704;2023-06-22T01:53:02;10.13;;;5.10;;
52734;SDS011;38631;47.572;10.704;2023-06-22T01:55:30;9.77;;;5.38;;
52734;SDS011;38631;47.572;10.704;2023-06-22T01:57:58;10.70;;;5.47;;
52734;SDS011;38631;47.572;10.704;2023-06-22T02:00:31;10.63;;;5.10;;
52734;SDS011;38631;47.572;10.704;2023-06-22T02:03:11;9.00;;;5.40;;
52734;SDS011;38631;47.572;10.704;2023-06-22T02:05:58;10.00;;;5.13;;
52734;SDS011;38631;47.572;10.704;2023-06-22T02:08:47;10.43;;;5.57;;
52734;SDS011;38631;47.572;10.704;2023-06-22T02:11:16;11.23;;;5.40;;
52734;SDS011;38631;47.572;10.704;2023-06-22T02:13:52;9.68;;;6.18;;
52734;SDS011;38631;47.572;10.704;2023-06-22T02:16:20;9.27;;;6.50;;
52734;SDS011;38631;47.572;10.704;2023-06-22T02:18:50;8.18;;;5.10;;
52734;SDS011;38631;47.572;10.704;2023-06-22T02:21:22;7.57;;;5.18;;
52734;SDS011;38631;47.572;10.704;2023-06-22T02:23:51;9.82;;;5.70;;
52734;SDS011;38631;47.572;10.704;2023-06-22T02:26:17;11.82;;;5.97;;
52734;SDS011;38631;47.572;10.704;2023-06-22T02:28:43;14.40;;;6.00;;
52734;SDS011;38631;47.572;10.704;2023-06-22T02:31:17;14.02;;;6.72;;
52734;SDS011;38631;47.572;10.704;2023-06-22T02:33:46;8.85;;;5.45;;
52734;SDS011;38631;47.572;10.704;2023-06-22T02:36:15;10.50;;;5.75;;
52734;SDS011;38631;47.572;10.704;2023-06-22T02:38:42;8.20;;;5.60;;
52734;SDS011;38631;47.572;10.704;2023-06-22T02:41:14;12.55;;;5.50;;
52734;SDS011;38631;47.572;10.704;2023-06-22T02:43:48;11.07;;;6.18;;
52734;SDS011;38631;47.572;10.704;2023-06-22T02:46:18;9.65;;;6.32;;
52734;SDS011;38631;47.572;10.704;2023-06-22T02:48:49;10.73;;;6.03;;
52734;SDS011;38631;47.572;10.704;2023-06-22T02:51:18;10.52;;;6.03;;
52734;SDS011;38631;47.572;10.704;2023-06-22T02:53:47;9.13;;;5.75;;
52734;SDS011;38631;47.572;10.704;2023-06-22T02:56:17;11.80;;;6.10;;
52734;SDS011;38631;47.572;10.704;2023-06-22T02:58:50;10.88;;;5.68;;
52734;SDS011;38631;47.572;10.704;2023-06-22T03:01:16;9.27;;;5.75;;
52734;SDS011;38631;47.572;10.704;2023-06-22T03:03:53;8.23;;;5.60;;
52734;SDS011;38631;47.572;10.704;2023-06-22T03:06:20;9.65;;;5.50;;
52734;SDS011;38631;47.572;10.704;2023-06-22T03:11:24;10.98;;;6.03;;
52734;SDS011;38631;47.572;10.704;2023-06-22T03:13:50;9.27;;;6.38;;
52734;SDS011;38631;47.572;10.704;2023-06-22T03:16:21;10.00;;;5.93;;
52734;SDS011;38631;47.572;10.704;2023-06-22T03:18:47;9.43;;;5.25;;
52734;SDS011;38631;47.572;10.704;2023-06-22T03:21:16;8.77;;;5.40;;
52734;SDS011;38631;47.572;10.704;2023-06-22T03:23:47;8.02;;;5.32;;
52734;SDS011;38631;47.572;10.704;2023-06-22T03:26:16;9.52;;;5.47;;
52734;SDS011;38631;47.572;10.704;2023-06-22T03:28:43;9.82;;;4.80;;
52734;SDS011;38631;47.572;10.704;2023-06-22T03:31:14;13.27;;;6.50;;
52734;SDS011;38631;47.572;10.704;2023-06-22T03:33:42;11.10;;;5.72;;
52734;SDS011;38631;47.572;10.704;2023-06-22T03:36:17;12.18;;;6.05;;
52734;SDS011;38631;47.572;10.704;2023-06-22T03:38:51;9.43;;;5.45;;
52734;SDS011;38631;47.572;10.704;2023-06-22T03:41:18;8.85;;;5.47;;
52734;SDS011;38631;47.572;10.704;2023-06-22T03:43:47;10.52;;;4.97;;
52734;SDS011;38631;47.572;10.704;2023-06-22T03:46:13;10.73;;;5.20;;
52734;SDS011;38631;47.572;10.704;2023-06-22T03:48:46;11.60;;;6.32;;
52734;SDS011;38631;47.572;10.704;2023-06-22T03:51:12;9.55;;;5.22;;
52734;SDS011;38631;47.572;10.704;2023-06-22T03:53:43;8.43;;;5.63;;
52734;SDS011;38631;47.572;10.704;2023-06-22T03:56:10;16.40;;;6.53;;
52734;SDS011;38631;47.572;10.704;2023-06-22T03:58:45;10.38;;;5.35;;
52734;SDS011;38631;47.572;10.704;2023-06-22T04:01:13;9.10;;;5.63;;
52734;SDS011;38631;47.572;10.704;2023-06-22T04:03:42;8.23;;;5.47;;
52734;SDS011;38631;47.572;10.704;2023-06-22T04:06:15;9.82;;;6.03;;
52734;SDS011;38631;47.572;10.704;2023-06-22T04:08:45;9.47;;;6.37;;
52734;SDS011;38631;47.572;10.704;2023-06-22T04:11:15;11.95;;;6.28;;
52734;SDS011;38631;47.572;10.704;2023-06-22T04:13:44;12.40;;;6.03;;
52734;SDS011;38631;47.572;10.704;2023-06-22T04:16:17;10.05;;;6.10;;
52734;SDS011;38631;47.572;10.704;2023-06-22T04:18:46;10.07;;;5.97;;
52734;SDS011;38631;47.572;10.704;2023-06-22T04:21:14;13.55;;;6.10;;
52734;SDS011;38631;47.572;10.704;2023-06-22T04:23:40;7.72;;;5.88;;
52734;SDS011;38631;47.572;10.704;2023-06-22T04:26:10;10.82;;;5.60;;
52734;SDS011;38631;47.572;10.704;2023-06-22T04:28:57;13.05;;;6.93;;
52734;SDS011;38631;47.572;10.704;2023-06-22T04:31:23;9.07;;;6.38;;
52734;SDS011;38631;47.572;10.704;2023-06-22T04:40:07;11.13;;;6.43;;
52734;SDS011;38631;47.572;10.704;2023-06-22T04:42:37;9.73;;;6.38;;
52734;SDS011;38631;47.572;10.704;2023-06-22T04:45:03;9.48;;;5.63;;
52734;SDS011;38631;47.572;10.704;2023-06-22T04:47:29;9.70;;;5.50;;
52734;SDS011;38631;47.572;10.704;2023-06-22T04:49:55;9.52;;;5.97;;
52734;SDS011;38631;47.572;10.704;2023-06-22T04:52:20;9.30;;;6.03;;
52734;SDS011;38631;47.572;10.704;2023-06-22T04:54:45;9.73;;;6.75;;
52734;SDS011;38631;47.572;10.704;2023-06-22T04:57:15;13.02;;;6.63;;
52734;SDS011;38631;47.572;10.704;2023-06-22T04:59:41;10.75;;;6.25;;
52734;SDS011;38631;47.572;10.704;2023-06-22T05:02:07;9.10;;;5.82;;
52734;SDS011;38631;47.572;10.704;2023-06-22T05:04:33;9.52;;;5.95;;
52734;SDS011;38631;47.572;10.704;2023-06-22T05:07:00;10.15;;;6.38;;
52734;SDS011;38631;47.572;10.704;2023-06-22T05:09:27;11.38;;;6.28;;
52734;SDS011;38631;47.572;10.704;2023-06-22T05:11:52;10.25;;;6.32;;
52734;SDS011;38631;47.572;10.704;2023-06-22T05:14:18;11.05;;;6.72;;
52734;SDS011;38631;47.572;10.704;2023-06-22T05:16:44;11.50;;;6.00;;
52734;SDS011;38631;47.572;10.704;2023-06-22T05:19:10;12.35;;;6.13;;
52734;SDS011;38631;47.572;10.704;2023-06-22T05:21:36;11.10;;;6.93;;
52734;SDS011;38631;47.572;10.704;2023-06-22T05:24:01;11.38;;;6.18;;
52734;SDS011;38631;47.572;10.704;2023-06-22T05:26:30;8.55;;;5.88;;
52734;SDS011;38631;47.572;10.704;2023-06-22T05:28:56;12.63;;;6.97;;
52734;SDS011;38631;47.572;10.704;2023-06-22T05:31:22;10.15;;;5.97;;
52734;SDS011;38631;47.572;10.704;2023-06-22T05:33:48;13.20;;;6.80;;
52734;SDS011;38631;47.572;10.704;2023-06-22T05:36:17;11.93;;;5.63;;
52734;SDS011;38631;47.572;10.704;2023-06-22T05:38:45;15.27;;;6.95;;
52734;SDS011;38631;47.572;10.704;2023-06-22T05:41:12;13.38;;;5.93;;
52734;SDS011;38631;47.572;10.704;2023-06-22T05:43:39;10.55;;;6.55;;
52734;SDS011;38631;47.572;10.704;2023-06-22T05:46:09;9.30;;;5.93;;
52734;SDS011;38631;47.572;10.704;2023-06-22T05:48:35;13.27;;;6.30;;
52734;SDS011;38631;47.572;10.704;2023-06-22T05:51:02;12.80;;;6.28;;
52734;SDS011;38631;47.572;10.704;2023-06-22T05:53:29;9.38;;;6.07;;
52734;SDS011;38631;47.572;10.704;2023-06-22T05:56:01;10.30;;;6.07;;
52734;SDS011;38631;47.572;10.704;2023-06-22T05:58:35;13.32;;;6.70;;
52734;SDS011;38631;47.572;10.704;2023-06-22T06:01:00;10.55;;;5.82;;
52734;SDS011;38631;47.572;10.704;2023-06-22T06:03:27;12.65;;;6.00;;
52734;SDS011;38631;47.572;10.704;2023-06-22T06:05:57;15.48;;;7.13;;
52734;SDS011;38631;47.572;10.704;2023-06-22T06:08:23;12.63;;;6.00;;
52734;SDS011;38631;47.572;10.704;2023-06-22T06:10:48;10.05;;;6.60;;
52734;SDS011;38631;47.572;10.704;2023-06-22T06:13:14;10.80;;;5.88;;
52734;SDS011;38631;47.572;10.704;2023-06-22T06:15:41;9.50;;;6.22;;
52734;SDS011;38631;47.572;10.704;2023-06-22T06:18:13;12.43;;;6.32;;
52734;SDS011;38631;47.572;10.704;2023-06-22T06:20:38;15.48;;;7.60;;
52734;SDS011;38631;47.572;10.704;2023-06-22T06:23:04;17.17;;;7.35;;
52734;SDS011;38631;47.572;10.704;2023-06-22T06:25:29;13.63;;;6.63;;
52734;SDS011;38631;47.572;10.704;2023-06-22T06:27:56;11.23;;;6.53;;
52734;SDS011;38631;47.572;10.704;2023-06-22T06:30:25;12.82;;;7.97;;
52734;SDS011;38631;47.572;10.704;2023-06-22T06:32:51;10.95;;;5.97;;
52734;SDS011;38631;47.572;10.704;2023-06-22T06:35:16;11.57;;;6.72;;
52734;SDS011;38631;47.572;10.704;2023-06-22T06:37:42;14.25;;;7.03;;
52734;SDS011;38631;47.572;10.704;2023-06-22T06:40:10;11.73;;;6.13;;
52734;SDS011;38631;47.572;10.704;2023-06-22T06:42:46;13.68;;;5.95;;
52734;SDS011;38631;47.572;10.704;2023-06-22T06:45:23;12.70;;;5.85;;
52734;SDS011;38631;47.572;10.704;2023-06-22T06:47:51;8.77;;;5.78;;
52734;SDS011;38631;47.572;10.704;2023-06-22T06:50:16;10.65;;;5.78;;
52734;SDS011;38631;47.572;10.704;2023-06-22T06:52:42;11.30;;;5.60;;
52734;SDS011;38631;47.572;10.704;2023-06-22T06:55:09;8.93;;;5.15;;
52734;SDS011;38631;47.572;10.704;2023-06-22T06:57:40;10.02;;;5.15;;
52734;SDS011;38631;47.572;10.704;2023-06-22T07:00:07;11.75;;;5.88;;
52734;SDS011;38631;47.572;10.704;2023-06-22T07:02:41;10.70;;;5.22;;
52734;SDS011;38631;47.572;10.704;2023-06-22T07:05:09;11.57;;;5.45;;
52734;SDS011;38631;47.572;10.704;2023-06-22T07:07:38;11.90;;;5.05;;
52734;SDS011;38631;47.572;10.704;2023-06-22T07:10:04;12.05;;;5.18;;
52734;SDS011;38631;47.572;10.704;2023-06-22T07:12:30;9.75;;;6.07;;
52734;SDS011;38631;47.572;10.704;2023-06-22T07:15:05;14.18;;;5.97;;
52734;SDS011;38631;47.572;10.704;2023-06-22T07:17:35;11.27;;;6.43;;
52734;SDS011;38631;47.572;10.704;2023-06-22T07:20:01;10.70;;;5.10;;
52734;SDS011;38631;47.572;10.704;2023-06-22T07:22:27;9.70;;;4.57;;
52734;SDS011;38631;47.572;10.704;2023-06-22T07:24:52;11.38;;;5.05;;
52734;SDS011;38631;47.572;10.704;2023-06-22T07:27:17;14.45;;;5.20;;
52734;SDS011;38631;47.572;10.704;2023-06-22T07:29:46;13.07;;;5.88;;
52734;SDS011;38631;47.572;10.704;2023-06-22T07:38:50;9.75;;;4.97;;
52734;SDS011;38631;47.572;10.704;2023-06-22T07:41:15;9.90;;;5.55;;
52734;SDS011;38631;47.572;10.704;2023-06-22T07:43:41;10.98;;;5.53;;
52734;SDS011;38631;47.572;10.704;2023-06-22T07:46:06;13.40;;;5.45;;
52734;SDS011;38631;47.572;10.704;2023-06-22T07:48:31;11.10;;;5.60;;
52734;SDS011;38631;47.572;10.704;2023-06-22T07:50:57;11.48;;;5.55;;
52734;SDS011;38631;47.572;10.704;2023-06-22T07:53:22;12.77;;;5.25;;
52734;SDS011;38631;47.572;10.704;2023-06-22T07:55:49;10.75;;;5.28;;
52734;SDS011;38631;47.572;10.704;2023-06-22T07:58:15;8.45;;;5.03;;
52734;SDS011;38631;47.572;10.704;2023-06-22T08:00:44;10.05;;;5.22;;
52734;SDS011;38631;47.572;10.704;2023-06-22T08:03:09;13.00;;;5.28;;
52734;SDS011;38631;47.572;10.704;2023-06-22T08:05:35;10.95;;;5.00;;
52734;SDS011;38631;47.572;10.704;2023-06-22T08:08:00;13.40;;;5.28;;
52734;SDS011;38631;47.572;10.704;2023-06-22T08:10:26;9.88;;;4.82;;
52734;SDS011;38631;47.572;10.704;2023-06-22T08:12:51;12.77;;;4.65;;
52734;SDS011;38631;47.572;10.704;2023-06-22T08:15:17;14.63;;;5.25;;
52734;SDS011;38631;47.572;10.704;2023-06-22T08:17:43;9.38;;;4.57;;
52734;SDS011;38631;47.572;10.704;2023-06-22T08:20:10;16.02;;;4.85;;
52734;SDS011;38631;47.572;10.704;2023-06-22T08:22:39;12.83;;;5.80;;
52734;SDS011;38631;47.572;10.704;2023-06-22T08:25:05;11.68;;;5.60;;
52734;SDS011;38631;47.572;10.704;2023-06-22T08:27:31;11.20;;;4.97;;
52734;SDS011;38631;47.572;10.704;2023-06-22T08:29:57;10.57;;;5.95;;
52734;SDS011;38631;47.572;10.704;2023-06-22T08:32:24;13.25;;;5.25;;
52734;SDS011;38631;47.572;10.704;2023-06-22T08:34:52;9.02;;;4.78;;
52734;SDS011;38631;47.572;10.704;2023-06-22T08:37:19;7.80;;;4.97;;
52734;SDS011;38631;47.572;10.704;2023-06-22T08:39:45;14.35;;;6.05;;
52734;SDS011;38631;47.572;10.704;2023-06-22T08:42:11;8.32;;;4.85;;
52734;SDS011;38631;47.572;10.704;2023-06-22T08:44:36;14.52;;;4.97;;
52734;SDS011;38631;47.572;10.704;2023-06-22T08:47:02;9.43;;;4.88;;
52734;SDS011;38631;47.572;10.704;2023-06-22T08:49:28;12.63;;;4.90;;
52734;SDS011;38631;47.572;10.704;2023-06-22T08:51:54;11.18;;;5.13;;
52734;SDS011;38631;47.572;10.704;2023-06-22T08:54:21;14.13;;;5.40;;
52734;SDS011;38631;47.572;10.704;2023-06-22T08:56:46;13.30;;;5.22;;
52734;SDS011;38631;47.572;10.704;2023-06-22T08:59:11;11.57;;;5.05;;
52734;SDS011;38631;47.572;10.704;2023-06-22T09:01:37;9.02;;;4.95;;
52734;SDS011;38631;47.572;10.704;2023-06-22T09:04:02;14.98;;;4.95;;
52734;SDS011;38631;47.572;10.704;2023-06-22T09:06:31;13.18;;;5.07;;
52734;SDS011;38631;47.572;10.704;2023-06-22T09:08:56;11.93;;;4.60;;
52734;SDS011;38631;47.572;10.704;2023-06-22T09:11:24;10.80;;;3.88;;
52734;SDS011;38631;47.572;10.704;2023-06-22T09:13:50;13.30;;;4.95;;
52734;SDS011;38631;47.572;10.704;2023-06-22T09:16:17;9.35;;;4.43;;
52734;SDS011;38631;47.572;10.704;2023-06-22T09:18:45;9.80;;;4.43;;
52734;SDS011;38631;47.572;10.704;2023-06-22T09:23:37;8.03;;;4.50;;
52734;SDS011;38631;47.572;10.704;2023-06-22T09:26:02;13.77;;;4.50;;
52734;SDS011;38631;47.572;10.704;2023-06-22T09:28:29;11.88;;;4.47;;
52734;SDS011;38631;47.572;10.704;2023-06-22T09:30:54;15.43;;;5.78;;
52734;SDS011;38631;47.572;10.704;2023-06-22T09:33:23;10.80;;;4.88;;
52734;SDS011;38631;47.572;10.704;2023-06-22T09:35:49;10.32;;;4.72;;
52734;SDS011;38631;47.572;10.704;2023-06-22T09:38:16;14.73;;;5.43;;
52734;SDS011;38631;47.572;10.704;2023-06-22T09:41:02;8.90;;;5.10;;
52734;SDS011;38631;47.572;10.704;2023-06-22T09:44:20;13.32;;;5.55;;
52734;SDS011;38631;47.572;10.704;2023-06-22T09:46:45;11.40;;;5.07;;
52734;SDS011;38631;47.572;10.704;2023-06-22T09:49:11;10.10;;;5.13;;
52734;SDS011;38631;47.572;10.704;2023-06-22T09:51:46;10.95;;;4.85;;
52734;SDS011;38631;47.572;10.704;2023-06-22T09:54:19;7.32;;;4.47;;
52734;SDS011;38631;47.572;10.704;2023-06-22T09:56:45;11.02;;;5.20;;
52734;SDS011;38631;47.572;10.704;2023-06-22T09:59:13;10.23;;;5.35;;
52734;SDS011;38631;47.572;10.704;2023-06-22T10:01:39;14.23;;;5.57;;
52734;SDS011;38631;47.572;10.704;2023-06-22T10:04:11;16.10;;;6.15;;
52734;SDS011;38631;47.572;10.704;2023-06-22T10:06:45;12.13;;;5.63;;
52734;SDS011;38631;47.572;10.704;2023-06-22T10:09:17;10.85;;;5.03;;
52734;SDS011;38631;47.572;10.704;2023-06-22T10:11:42;10.48;;;4.97;;
52734;SDS011;38631;47.572;10.704;2023-06-22T10:14:08;21.77;;;5.18;;
52734;SDS011;38631;47.572;10.704;2023-06-22T10:16:36;10.23;;;4.93;;
52734;SDS011;38631;47.572;10.704;2023-06-22T10:19:25;14.20;;;4.93;;
52734;SDS011;38631;47.572;10.704;2023-06-22T10:21:53;11.90;;;4.18;;
52734;SDS011;38631;47.572;10.704;2023-06-22T10:24:20;14.52;;;4.60;;
52734;SDS011;38631;47.572;10.704;2023-06-22T10:26:48;12.50;;;4.40;;
52734;SDS011;38631;47.572;10.704;2023-06-22T10:29:13;12.27;;;3.88;;
52734;SDS011;38631;47.572;10.704;2023-06-22T10:31:42;14.07;;;4.68;;
52734;SDS011;38631;47.572;10.704;2023-06-22T10:34:07;9.93;;;5.05;;
52734;SDS011;38631;47.572;10.704;2023-06-22T10:36:33;11.02;;;5.05;;
52734;SDS011;38631;47.572;10.704;2023-06-22T10:39:00;10.95;;;5.38;;
52734;SDS011;38631;47.572;10.704;2023-06-22T10:41:27;12.05;;;4.93;;
52734;SDS011;38631;47.572;10.704;2023-06-22T10:43:55;13.00;;;4.78;;
52734;SDS011;38631;47.572;10.704;2023-06-22T10:46:21;14.75;;;4.45;;
52734;SDS011;38631;47.572;10.704;2023-06-22T10:48:46;10.90;;;4.93;;
52734;SDS011;38631;47.572;10.704;2023-06-22T10:51:14;16.85;;;4.80;;
52734;SDS011;38631;47.572;10.704;2023-06-22T10:53:40;10.55;;;4.60;;
52734;SDS011;38631;47.572;10.704;2023-06-22T10:56:11;10.05;;;4.03;;
52734;SDS011;38631;47.572;10.704;2023-06-22T10:58:37;10.80;;;4.60;;
52734;SDS011;38631;47.572;10.704;2023-06-22T11:01:08;11.60;;;5.05;;
52734;SDS011;38631;47.572;10.704;2023-06-22T11:03:33;18.63;;;4.45;;
52734;SDS011;38631;47.572;10.704;2023-06-22T11:05:59;16.38;;;5.63;;
52734;SDS011;38631;47.572;10.704;2023-06-22T11:08:25;12.82;;;5.43;;
52734;SDS011;38631;47.572;10.704;2023-06-22T11:10:51;11.30;;;5.50;;
52734;SDS011;38631;47.572;10.704;2023-06-22T11:13:17;12.13;;;5.28;;
52734;SDS011;38631;47.572;10.704;2023-06-22T11:15:42;10.90;;;5.25;;
52734;SDS011;38631;47.572;10.704;2023-06-22T11:18:14;17.38;;;5.07;;
52734;SDS011;38631;47.572;10.704;2023-06-22T11:20:40;11.23;;;5.28;;
52734;SDS011;38631;47.572;10.704;2023-06-22T11:23:06;10.25;;;4.78;;
52734;SDS011;38631;47.572;10.704;2023-06-22T11:25:34;12.75;;;5.22;;
52734;SDS011;38631;47.572;10.704;2023-06-22T11:28:03;11.30;;;5.03;;
52734;SDS011;38631;47.572;10.704;2023-06-22T11:30:41;8.10;;;4.63;;
52734;SDS011;38631;47.572;10.704;2023-06-22T11:33:07;12.18;;;4.88;;
52734;SDS011;38631;47.572;10.704;2023-06-22T11:35:32;8.55;;;4.68;;
52734;SDS011;38631;47.572;10.704;2023-06-22T11:38:01;9.32;;;4.28;;
52734;SDS011;38631;47.572;10.704;2023-06-22T11:40:28;12.38;;;4.90;;
52734;SDS011;38631;47.572;10.704;2023-06-22T11:42:53;11.07;;;4.47;;
52734;SDS011;38631;47.572;10.704;2023-06-22T11:45:19;13.48;;;5.57;;
52734;SDS011;38631;47.572;10.704;2023-06-22T11:47:45;12.23;;;5.35;;
52734;SDS011;38631;47.572;10.704;2023-06-22T11:50:11;12.25;;;5.38;;
52734;SDS011;38631;47.572;10.704;2023-06-22T11:52:36;13.90;;;5.28;;
52734;SDS011;38631;47.572;10.704;2023-06-22T11:55:02;9.30;;;4.90;;
52734;SDS011;38631;47.572;10.704;2023-06-22T11:57:29;12.50;;;5.18;;
52734;SDS011;38631;47.572;10.704;2023-06-22T11:59:55;12.40;;;4.47;;
52734;SDS011;38631;47.572;10.704;2023-06-22T12:02:20;13.13;;;3.95;;
52734;SDS011;38631;47.572;10.704;2023-06-22T12:04:45;11.77;;;3.88;;
52734;SDS011;38631;47.572;10.704;2023-06-22T12:07:11;11.77;;;4.40;;
52734;SDS011;38631;47.572;10.704;2023-06-22T12:09:36;12.77;;;5.05;;
52734;SDS011;38631;47.572;10.704;2023-06-22T12:12:02;9.55;;;4.57;;
52734;SDS011;38631;47.572;10.704;2023-06-22T12:14:28;8.23;;;3.42;;
52734;SDS011;38631;47.572;10.704;2023-06-22T12:16:53;11.77;;;4.13;;
52734;SDS011;38631;47.572;10.704;2023-06-22T12:19:19;10.82;;;4.10;;
52734;SDS011;38631;47.572;10.704;2023-06-22T12:21:44;10.15;;;4.00;;
52734;SDS011;38631;47.572;10.704;2023-06-22T12:24:11;14.32;;;4.43;;
52734;SDS011;38631;47.572;10.704;2023-06-22T12:26:36;14.25;;;4.22;;
52734;SDS011;38631;47.572;10.704;2023-06-22T12:29:01;9.63;;;3.97;;
52734;SDS011;38631;47.572;10.704;2023-06-22T12:31:27;11.18;;;4.40;;
52734;SDS011;38631;47.572;10.704;2023-06-22T12:33:52;10.65;;;3.60;;
52734;SDS011;38631;47.572;10.704;2023-06-22T12:36:18;10.85;;;4.22;;
52734;SDS011;38631;47.572;10.704;2023-06-22T12:38:43;12.75;;;4.68;;
52734;SDS011;38631;47.572;10.704;2023-06-22T12:41:09;9.73;;;4.07;;
52734;SDS011;38631;47.572;10.704;2023-06-22T12:43:37;7.72;;;3.95;;
52734;SDS011;38631;47.572;10.704;2023-06-22T12:46:02;11.65;;;4.10;;
52734;SDS011;38631;47.572;10.704;2023-06-22T12:48:30;12.70;;;4.00;;
52734;SDS011;38631;47.572;10.704;2023-06-22T12:50:56;8.90;;;3.90;;
52734;SDS011;38631;47.572;10.704;2023-06-22T12:53:21;10.07;;;3.90;;
52734;SDS011;38631;47.572;10.704;2023-06-22T12:55:52;11.95;;;4.65;;
52734;SDS011;38631;47.572;10.704;2023-06-22T12:58:40;8.52;;;3.70;;
52734;SDS011;38631;47.572;10.704;2023-06-22T13:01:14;12.43;;;4.25;;
52734;SDS011;38631;47.572;10.704;2023-06-22T13:03:41;11.32;;;4.20;;
52734;SDS011;38631;47.572;10.704;2023-06-22T13:06:07;13.20;;;3.55;;
52734;SDS011;38631;47.572;10.704;2023-06-22T13:08:38;11.73;;;4.13;;
52734;SDS011;38631;47.572;10.704;2023-06-22T13:11:10;12.38;;;3.80;;
52734;SDS011;38631;47.572;10.704;2023-06-22T13:13:38;11.40;;;4.18;;
52734;SDS011;38631;47.572;10.704;2023-06-22T13:16:07;8.10;;;3.63;;
52734;SDS011;38631;47.572;10.704;2023-06-22T13:18:33;7.93;;;3.15;;
52734;SDS011;38631;47.572;10.704;2023-06-22T13:21:03;11.43;;;4.25;;
52734;SDS011;38631;47.572;10.704;2023-06-22T13:23:38;12.60;;;5.37;;
52734;SDS011;38631;47.572;10.704;2023-06-22T13:26:04;10.50;;;3.55;;
52734;SDS011;38631;47.572;10.704;2023-06-22T13:28:29;9.50;;;3.35;;
52734;SDS011;38631;47.572;10.704;2023-06-22T13:30:55;8.75;;;4.53;;
52734;SDS011;38631;47.572;10.704;2023-06-22T13:33:20;14.00;;;3.92;;
52734;SDS011;38631;47.572;10.704;2023-06-22T13:35:46;10.10;;;3.60;;
52734;SDS011;38631;47.572;10.704;2023-06-22T13:40:57;10.45;;;3.70;;
52734;SDS011;38631;47.572;10.704;2023-06-22T13:43:26;12.68;;;3.78;;
52734;SDS011;38631;47.572;10.704;2023-06-22T13:45:53;12.15;;;4.15;;
52734;SDS011;38631;47.572;10.704;2023-06-22T13:48:18;9.25;;;3.83;;
52734;SDS011;38631;47.572;10.704;2023-06-22T13:50:48;11.13;;;3.30;;
52734;SDS011;38631;47.572;10.704;2023-06-22T13:53:14;6.25;;;3.83;;
52734;SDS011;38631;47.572;10.704;2023-06-22T13:55:39;9.70;;;3.22;;
52734;SDS011;38631;47.572;10.704;2023-06-22T13:58:08;10.70;;;3.67;;
52734;SDS011;38631;47.572;10.704;2023-06-22T14:00:36;8.63;;;3.80;;
52734;SDS011;38631;47.572;10.704;2023-06-22T14:03:04;11.60;;;3.33;;
52734;SDS011;38631;47.572;10.704;2023-06-22T14:05:32;6.95;;;3.20;;
52734;SDS011;38631;47.572;10.704;2023-06-22T14:08:01;8.15;;;2.95;;
52734;SDS011;38631;47.572;10.704;2023-06-22T14:10:26;9.20;;;2.65;;
52734;SDS011;38631;47.572;10.704;2023-06-22T14:12:51;10.07;;;3.38;;
52734;SDS011;38631;47.572;10.704;2023-06-22T14:15:18;10.60;;;3.17;;
52734;SDS011;38631;47.572;10.704;2023-06-22T14:17:44;9.25;;;2.83;;
52734;SDS011;38631;47.572;10.704;2023-06-22T14:20:10;11.48;;;3.22;;
52734;SDS011;38631;47.572;10.704;2023-06-22T14:22:35;11.77;;;3.20;;
52734;SDS011;38631;47.572;10.704;2023-06-22T14:25:01;9.32;;;2.85;;
52734;SDS011;38631;47.572;10.704;2023-06-22T14:27:27;9.68;;;2.63;;
52734;SDS011;38631;47.572;10.704;2023-06-22T14:29:53;9.75;;;4.13;;
52734;SDS011;38631;47.572;10.704;2023-06-22T14:32:18;9.18;;;2.72;;
52734;SDS011;38631;47.572;10.704;2023-06-22T14:34:43;8.52;;;3.33;;
52734;SDS011;38631;47.572;10.704;2023-06-22T14:37:09;8.25;;;3.15;;
52734;SDS011;38631;47.572;10.704;2023-06-22T14:39:38;9.40;;;3.03;;
52734;SDS011;38631;47.572;10.704;2023-06-22T14:42:04;8.70;;;2.78;;
52734;SDS011;38631;47.572;10.704;2023-06-22T14:44:30;12.77;;;2.83;;
52734;SDS011;38631;47.572;10.704;2023-06-22T14:46:56;8.65;;;3.10;;
52734;SDS011;38631;47.572;10.704;2023-06-22T14:49:22;12.18;;;3.00;;
52734;SDS011;38631;47.572;10.704;2023-06-22T14:51:50;9.35;;;3.30;;
52734;SDS011;38631;47.572;10.704;2023-06-22T14:54:25;10.20;;;2.63;;
52734;SDS011;38631;47.572;10.704;2023-06-22T14:56:50;11.13;;;2.88;;
52734;SDS011;38631;47.572;10.704;2023-06-22T14:59:18;13.52;;;3.05;;
52734;SDS011;38631;47.572;10.704;2023-06-22T15:01:44;15.13;;;2.72;;
52734;SDS011;38631;47.572;10.704;2023-06-22T15:04:10;8.27;;;3.13;;
52734;SDS011;38631;47.572;10.704;2023-06-22T15:06:36;13.10;;;3.20;;
52734;SDS011;38631;47.572;10.704;2023-06-22T15:09:20;9.63;;;2.92;;